Airfield :
LOGIN :

Register | Disclaimer

   EN    FR    IT 

 










Legend :    VFR   Marginal VFR   IFR   Intensive IFR   Very Intensive IFR
Visi :
Ceiling :
>= 8 km
>= 3000ft
5 to 8 km
1000 to 3000 ft
1500m to 5 km
500 to 1000 ft
800 to 1500m
200 to 500 ft
< 800m
< 200 ft
Symbols :   Thunderstorms  Fog  Heavy snow  Heavy precipitations  Wind > 20 kt
SIGMETs :     Misc.  Thunderstorms  Icing  Turbulence  Mountain Waves  Volcanic Ashes






- Airport Elevation : 121 ft
- IATA code : HUY


EGNJ - Humberside

CURRENT METAR :
  • 181420Z 25018KT 9999 SCT033 12/02 Q1019

EXPIRED METARs :
  • 181350Z 26014KT 9999 SCT030 12/01 Q1019
  • 181320Z 25013KT 9999 SCT025 12/02 Q1019
  • 181250Z 24011KT 9999 SCT022 11/02 Q1020
  • 181220Z 24012KT 9999 SCT020 11/01 Q1021
  • 181150Z 24011KT 9999 SCT018 10/02 Q1021
  • 181120Z 25011KT 9999 FEW018 10/01 Q1021
  • 181020Z 25014KT 9999 SCT018 09/02 Q1022
  • 180950Z 26011KT 9999 SCT018 08/02 Q1022

TAF TAF EGNJ
Valid from the 18 at 15:00 until the 19 at 00:00 UTC


181401Z 1815/1824 25013KT 9999 SCT020
TEMPO 1815/1822 6000 RA
PROB30
TEMPO 1815/1822 4000 RADZ BKN010
ATIS : +44 1652 682 020



MET'MAP, your aeronautical weather chart ! - Copyright ORBIFLY December 2007 - Disclaimer

ORBIFLY MET'MAP TEAM :

Programming & Development : Alexandra Zaïnal
Original concept : Baudouin d'Aumeries
Technical & hardware support : Manuel Goepfert
Assistance : Marc-Olivier Méhu




SOURCES & CREDITS :

   NOAA